Terminal Aerodrome Forecast
Issued by NWS

Home | Current Version | Previous Version | Text Only | Print | Product List | Glossary On
Versions: 1 2 3 4 5 6 7 8 9 10 11 12 13 14 15 16 17 18
000
FTUS41 KPBZ 281900 AAA
TAFLBE
TAF AMD
KLBE 281931Z 2820/2918 30008KT 2SM -DZ OVC012
      TEMPO 2820/2822 4SM -DZ BKN006
     FM282200 30004KT P6SM OVC020
     FM290600 32004KT 6SM BR BKN025
     FM291500 35004KT P6SM OVC100
     FM291700 34005KT P6SM BKN250=

USA.gov is the U.S. government's official web portal to all federal, state and local government web resources and services.